createdAt,value
2019-05-02T19:45:21.837Z,11.40
2019-05-02T19:46:51.931Z,23.00
2019-05-02T19:47:54.324Z,23.70
2019-05-02T19:49:47.341Z,14.80
2019-05-02T19:50:44.233Z,13.30
2019-05-02T19:52:40.502Z,15.70
2019-05-02T19:53:38.457Z,12.00
2019-05-02T19:55:33.960Z,14.90
2019-05-02T19:56:45.365Z,19.80
2019-05-02T19:58:27.252Z,12.40
2019-05-02T19:59:29.597Z,9.90
2019-05-02T20:01:22.931Z,14.10
2019-05-02T20:02:22.299Z,15.20
2019-05-02T20:04:16.448Z,15.80
2019-05-02T20:05:16.407Z,12.00
2019-05-02T20:07:12.248Z,16.00
2019-05-02T20:08:14.784Z,12.70
2019-05-02T20:09:11.399Z,17.00
2019-05-02T20:10:12.198Z,20.40
2019-05-02T20:11:12.440Z,15.20
2019-05-02T20:12:15.472Z,12.70
2019-05-02T20:13:12.010Z,17.50
2019-05-02T20:14:12.401Z,16.70
2019-05-02T20:15:12.097Z,13.00
2019-05-02T20:16:11.855Z,12.80
2019-05-02T20:17:14.831Z,15.50
2019-05-02T20:18:11.971Z,30.50
2019-05-02T20:19:12.289Z,17.50
2019-05-02T20:20:12.297Z,15.10
2019-05-02T20:21:13.632Z,15.30
2019-05-02T20:22:11.830Z,13.30
2019-05-02T20:23:17.865Z,13.40
2019-05-02T20:24:17.485Z,13.30
2019-05-02T20:25:12.392Z,13.00
2019-05-02T20:26:15.398Z,14.40
2019-05-02T20:27:12.073Z,13.10
2019-05-02T20:28:10.256Z,12.60
2019-05-02T20:29:10.254Z,11.60
2019-05-02T20:30:12.024Z,11.80
2019-05-02T20:31:12.174Z,14.30
2019-05-02T20:32:10.242Z,11.60
2019-05-02T20:33:10.236Z,12.30
2019-05-02T20:34:11.801Z,11.90
2019-05-02T20:35:11.947Z,14.20
2019-05-02T20:36:12.183Z,16.70
2019-05-02T20:37:12.602Z,13.10
2019-05-02T20:38:11.783Z,16.00
2019-05-02T20:39:11.876Z,13.20
2019-05-02T20:40:11.935Z,15.80
2019-05-02T20:41:12.532Z,19.80
2019-05-02T20:42:11.988Z,12.50
2019-05-02T20:43:12.003Z,16.20
2019-05-02T20:44:12.017Z,12.90
2019-05-02T20:45:11.654Z,13.10
2019-05-02T20:46:11.998Z,13.80
2019-05-02T20:47:12.094Z,13.30
2019-05-02T20:48:11.922Z,12.30
2019-05-02T20:49:10.206Z,16.30
2019-05-02T20:50:11.982Z,17.50
2019-05-02T20:51:11.989Z,16.80
2019-05-02T20:52:11.901Z,12.40
2019-05-02T20:53:12.766Z,12.70
2019-05-02T20:54:12.374Z,12.00
2019-05-02T20:55:12.144Z,17.00
2019-05-02T20:56:12.172Z,13.50
2019-05-02T20:57:12.008Z,13.60
2019-05-02T20:58:10.250Z,13.90
2019-05-02T20:59:12.748Z,17.40
2019-05-02T21:00:12.141Z,14.30
2019-05-02T21:01:12.182Z,13.40
2019-05-02T21:02:12.254Z,15.20
2019-05-02T21:03:11.971Z,13.40
2019-05-02T21:04:12.023Z,13.70
2019-05-02T21:05:11.846Z,16.20
2019-05-02T21:06:12.245Z,14.70
2019-05-02T21:07:10.223Z,12.50
2019-05-02T21:08:10.252Z,17.60
2019-05-02T21:09:10.329Z,21.00
2019-05-02T21:10:10.199Z,13.80
2019-05-02T21:11:12.319Z,14.00
2019-05-02T21:12:12.614Z,13.40
2019-05-02T21:13:10.233Z,13.80
2019-05-02T21:14:12.295Z,17.90
2019-05-02T21:15:12.332Z,13.80
2019-05-02T21:16:12.082Z,13.60
2019-05-02T21:17:10.245Z,14.70
2019-05-02T21:18:11.700Z,15.20
2019-05-02T21:19:12.233Z,14.60
2019-05-02T21:20:12.328Z,14.40
2019-05-02T21:21:10.110Z,15.60
2019-05-02T21:22:10.433Z,27.70
2019-05-02T21:23:10.980Z,33.20
2019-05-02T21:24:10.075Z,33.30
2019-05-02T21:25:10.074Z,26.90
2019-05-02T21:26:10.067Z,26.60
2019-05-02T21:27:10.080Z,35.50
2019-05-02T21:28:11.831Z,35.40
2019-05-02T21:29:11.987Z,38.40
2019-05-02T21:30:12.175Z,39.60
2019-05-02T21:31:11.981Z,41.80
2019-05-02T21:32:12.034Z,37.30
2019-05-02T21:33:11.769Z,40.60
2019-05-02T21:34:11.717Z,40.70
2019-05-02T21:35:11.926Z,40.60
2019-05-02T21:36:12.030Z,42.70
2019-05-02T21:37:10.033Z,42.00
2019-05-02T21:38:11.907Z,45.10
2019-05-02T21:39:11.830Z,47.00
2019-05-02T21:40:11.819Z,49.80
2019-05-02T21:41:10.218Z,46.90
2019-05-02T21:42:10.390Z,47.50
2019-05-02T21:43:12.864Z,52.00
2019-05-02T21:44:10.271Z,44.90
2019-05-02T21:45:10.224Z,49.70
2019-05-02T21:46:10.917Z,51.50
2019-05-02T21:47:10.322Z,46.00
2019-05-02T21:48:10.163Z,47.10
2019-05-02T21:49:11.944Z,53.60
2019-05-02T21:50:10.062Z,49.00
2019-05-02T21:51:12.011Z,52.50
2019-05-02T21:52:11.761Z,53.90
2019-05-02T21:53:10.235Z,54.70
2019-05-02T21:54:12.075Z,50.10
2019-05-02T21:55:09.962Z,51.30
2019-05-02T21:56:09.966Z,54.70
2019-05-02T21:57:12.023Z,52.20
2019-05-02T21:58:12.002Z,53.30
2019-05-02T21:59:11.902Z,51.80
2019-05-02T22:00:11.669Z,49.50
2019-05-02T22:01:10.125Z,53.10
2019-05-02T22:02:11.863Z,53.70
2019-05-02T22:03:09.930Z,49.50
2019-05-02T22:04:09.943Z,53.10
2019-05-02T22:05:10.066Z,57.00
2019-05-02T22:06:12.261Z,56.70
2019-05-02T22:07:12.104Z,54.10
2019-05-02T22:08:12.149Z,57.20
2019-05-02T22:09:12.095Z,56.80
2019-05-02T22:10:12.013Z,53.50
2019-05-02T22:11:12.159Z,53.80
2019-05-02T22:12:11.833Z,56.30
2019-05-02T22:13:11.375Z,53.70
2019-05-02T22:14:13.412Z,58.30
2019-05-02T22:15:09.930Z,55.80
2019-05-02T22:16:10.059Z,58.00
2019-05-02T22:17:12.689Z,54.90
2019-05-02T22:18:09.898Z,62.30
2019-05-02T22:19:11.381Z,54.50
2019-05-02T22:20:10.099Z,56.50
2019-05-02T22:21:09.932Z,56.00
2019-05-02T22:22:09.873Z,53.70
2019-05-02T22:23:11.714Z,54.70
2019-05-02T22:24:13.693Z,58.80
2019-05-02T22:25:11.536Z,55.60
2019-05-02T22:26:09.837Z,52.20
2019-05-02T22:27:09.839Z,53.70
2019-05-02T22:28:09.993Z,54.40
2019-05-02T22:29:09.831Z,55.40
2019-05-02T22:30:09.824Z,55.00
2019-05-02T22:31:12.543Z,54.00
2019-05-02T22:32:12.222Z,57.70
2019-05-02T22:33:11.775Z,61.40
2019-05-02T22:34:09.978Z,59.70
2019-05-02T22:35:12.247Z,60.50
2019-05-02T22:36:10.040Z,61.10
2019-05-02T22:37:09.795Z,58.10
2019-05-02T22:38:11.725Z,61.90
2019-05-02T22:39:09.965Z,58.00
2019-05-02T22:40:10.138Z,58.90
2019-05-02T22:41:10.101Z,55.80
2019-05-02T22:42:12.691Z,58.40
2019-05-02T22:43:09.772Z,60.00
2019-05-02T22:44:09.770Z,60.10
2019-05-02T22:45:10.006Z,59.80
2019-05-02T22:46:09.782Z,54.00
2019-05-02T22:47:11.778Z,57.60
2019-05-02T22:48:14.096Z,60.40
2019-05-02T22:49:11.508Z,60.00
2019-05-02T22:50:09.749Z,60.50
2019-05-02T22:51:09.785Z,61.60
2019-05-02T22:52:10.063Z,67.10
2019-05-02T22:53:09.794Z,64.00
2019-05-02T22:54:23.327Z,75.60
2019-05-02T22:55:09.742Z,62.40
2019-05-02T22:56:11.825Z,64.50
2019-05-02T22:57:11.557Z,58.20
2019-05-02T22:58:09.837Z,59.60
2019-05-02T22:59:09.943Z,60.40
2019-05-02T23:00:09.819Z,62.30
2019-05-02T23:01:10.978Z,60.30
2019-05-02T23:02:12.771Z,61.20
2019-05-02T23:03:12.432Z,57.10
2019-05-02T23:04:10.028Z,61.70
2019-05-02T23:05:09.892Z,56.50
2019-05-02T23:06:12.529Z,57.90
2019-05-02T23:07:12.674Z,60.10
2019-05-02T23:08:12.528Z,68.10
2019-05-02T23:09:09.924Z,62.20
2019-05-02T23:10:09.673Z,63.50
2019-05-02T23:11:09.995Z,62.20
2019-05-02T23:12:09.922Z,62.20
2019-05-02T23:13:09.978Z,63.70
2019-05-02T23:14:09.644Z,61.80
2019-05-02T23:15:09.685Z,61.00
2019-05-02T23:16:10.723Z,64.00
2019-05-02T23:17:12.788Z,60.70
2019-05-02T23:18:09.623Z,64.00
2019-05-02T23:19:12.272Z,62.30
2019-05-02T23:20:09.619Z,65.20
2019-05-02T23:21:09.800Z,63.90
2019-05-02T23:22:09.927Z,67.00
2019-05-02T23:23:12.403Z,70.50
2019-05-02T23:24:09.599Z,62.40
2019-05-02T23:25:11.664Z,64.60
2019-05-02T23:26:09.945Z,63.50
2019-05-02T23:27:11.674Z,60.20
2019-05-02T23:28:09.593Z,65.20
2019-05-02T23:29:09.815Z,65.90
2019-05-02T23:30:11.542Z,61.00
2019-05-02T23:31:11.444Z,65.10
2019-05-02T23:32:09.568Z,69.50
2019-05-02T23:33:09.632Z,65.50
2019-05-02T23:34:09.625Z,61.30
2019-05-02T23:35:09.549Z,67.10
2019-05-02T23:36:09.548Z,63.20
2019-05-02T23:37:11.818Z,75.80
2019-05-02T23:38:09.594Z,66.80
2019-05-02T23:39:09.766Z,62.20
2019-05-02T23:40:12.362Z,66.40
2019-05-02T23:41:09.532Z,65.10
2019-05-02T23:42:09.825Z,69.40
2019-05-02T23:43:09.648Z,62.00
2019-05-02T23:44:09.508Z,66.70
2019-05-02T23:45:09.504Z,68.80
2019-05-02T23:46:09.499Z,68.30
2019-05-02T23:47:09.515Z,61.00
2019-05-02T23:48:09.521Z,66.50
2019-05-02T23:49:09.491Z,69.90
2019-05-02T23:50:09.512Z,60.80
2019-05-02T23:51:09.481Z,63.70
2019-05-02T23:52:09.475Z,59.00
2019-05-02T23:53:09.490Z,64.10
2019-05-02T23:54:09.463Z,59.70
2019-05-02T23:55:09.461Z,63.10
2019-05-02T23:56:09.478Z,60.40
2019-05-02T23:57:09.450Z,55.60
2019-05-02T23:58:09.449Z,54.10
2019-05-02T23:59:09.500Z,56.50
